createdAt,value
2018-02-21T00:01:26.879Z,23.87
2018-02-21T00:03:56.695Z,23.45
2018-02-21T00:06:26.536Z,24.45
2018-02-21T00:08:56.361Z,24.80
2018-02-21T00:11:26.192Z,21.48
2018-02-21T00:13:56.076Z,22.95
2018-02-21T00:16:25.965Z,24.52
2018-02-21T00:18:56.113Z,25.20
2018-02-21T00:21:26.117Z,24.00
2018-02-21T00:23:55.935Z,23.42
2018-02-21T00:26:25.512Z,24.55
2018-02-21T00:28:55.348Z,22.60
2018-02-21T00:31:25.138Z,20.30
2018-02-21T00:33:54.963Z,20.62
2018-02-21T00:36:24.813Z,20.52
2018-02-21T00:38:54.616Z,19.55
2018-02-21T00:41:24.444Z,21.37
2018-02-21T00:43:54.249Z,20.37
2018-02-21T00:46:24.060Z,19.48
2018-02-21T00:48:56.145Z,20.48
2018-02-21T00:51:26.503Z,18.20
2018-02-21T00:53:56.528Z,19.92
2018-02-21T00:56:26.349Z,19.25
2018-02-21T00:58:56.172Z,19.62
2018-02-21T01:01:25.980Z,20.15
2018-02-21T01:03:55.815Z,20.27
2018-02-21T01:06:25.617Z,21.58
2018-02-21T01:08:55.444Z,19.10
2018-02-21T01:11:25.248Z,22.10
2018-02-21T01:13:55.128Z,21.15
2018-02-21T01:16:25.001Z,22.40
2018-02-21T01:18:54.845Z,21.42
2018-02-21T01:21:24.666Z,21.48
2018-02-21T01:23:54.493Z,22.92
2018-02-21T01:26:24.303Z,20.65
2018-02-21T01:28:54.100Z,22.15
2018-02-21T01:31:23.912Z,22.33
2018-02-21T01:33:54.031Z,21.00
2018-02-21T01:36:23.849Z,21.50
2018-02-21T01:38:53.423Z,21.83
2018-02-21T01:41:23.236Z,21.73
2018-02-21T01:43:53.066Z,21.52
2018-02-21T01:46:22.905Z,21.65
2018-02-21T01:48:52.703Z,21.95
2018-02-21T01:51:22.541Z,23.00
2018-02-21T01:53:52.372Z,22.40
2018-02-21T01:56:22.175Z,21.10
2018-02-21T01:58:52.037Z,24.05
2018-02-21T02:01:21.848Z,22.95
2018-02-21T02:03:51.666Z,22.20
2018-02-21T02:06:21.503Z,22.25
2018-02-21T02:08:51.366Z,22.00
2018-02-21T02:11:21.206Z,23.70
2018-02-21T02:16:26.068Z,22.02
2018-02-21T02:18:55.897Z,23.10
2018-02-21T02:21:25.883Z,21.33
2018-02-21T02:23:55.714Z,20.73
2018-02-21T02:26:25.505Z,23.40
2018-02-21T02:28:55.319Z,22.73
2018-02-21T02:31:25.187Z,24.67
2018-02-21T02:33:54.984Z,22.00
2018-02-21T02:36:24.777Z,21.58
2018-02-21T02:39:05.728Z,20.02
2018-02-21T02:41:35.244Z,22.48
2018-02-21T02:44:05.123Z,20.35
2018-02-21T02:46:34.693Z,21.30
2018-02-21T02:49:04.491Z,23.17
2018-02-21T02:51:42.490Z,23.62
2018-02-21T02:54:12.293Z,22.75
2018-02-21T02:56:42.098Z,24.17
2018-02-21T02:59:11.911Z,23.33
2018-02-21T03:01:41.711Z,22.85
2018-02-21T03:04:11.531Z,24.00
2018-02-21T03:06:41.345Z,22.25
2018-02-21T03:09:11.205Z,22.87
2018-02-21T03:11:40.740Z,22.73
2018-02-21T03:14:10.562Z,21.70
2018-02-21T03:16:40.381Z,21.87
2018-02-21T03:19:10.176Z,22.23
2018-02-21T03:21:39.995Z,23.05
2018-02-21T03:24:09.799Z,23.60
2018-02-21T03:26:39.640Z,24.45
2018-02-21T03:29:09.454Z,23.85
2018-02-21T03:31:39.495Z,23.30
2018-02-21T03:34:09.332Z,22.13
2018-02-21T03:36:39.141Z,22.77
2018-02-21T03:39:08.972Z,21.52
2018-02-21T03:41:46.046Z,23.48
2018-02-21T03:46:52.361Z,23.50
2018-02-21T03:49:22.176Z,24.33
2018-02-21T03:51:51.976Z,24.58
2018-02-21T03:54:22.063Z,22.35
2018-02-21T03:56:51.850Z,24.33
2018-02-21T03:59:21.663Z,22.45
2018-02-21T04:01:51.480Z,23.33
2018-02-21T04:04:21.276Z,22.35
2018-02-21T04:06:51.084Z,22.77
2018-02-21T04:09:20.617Z,22.23
2018-02-21T04:11:50.436Z,22.80
2018-02-21T04:14:20.045Z,24.40
2018-02-21T04:16:49.895Z,24.08
2018-02-21T04:19:19.706Z,23.48
2018-02-21T04:21:49.517Z,24.55
2018-02-21T04:24:19.329Z,23.40
2018-02-21T04:26:49.153Z,24.27
2018-02-21T04:29:18.952Z,24.15
2018-02-21T04:31:48.744Z,24.00
2018-02-21T04:34:18.581Z,24.48
2018-02-21T04:36:49.129Z,24.92
2018-02-21T04:39:18.959Z,23.48
2018-02-21T04:41:48.579Z,23.80
2018-02-21T04:44:18.390Z,24.92
2018-02-21T04:46:48.223Z,23.50
2018-02-21T04:49:18.013Z,23.52
2018-02-21T04:51:47.889Z,24.60
2018-02-21T04:54:23.119Z,21.80
2018-02-21T04:56:58.128Z,25.00
2018-02-21T04:59:33.294Z,22.20
2018-02-21T05:02:02.901Z,23.55
2018-02-21T05:04:32.773Z,25.20
2018-02-21T05:07:02.441Z,25.55
2018-02-21T05:09:32.242Z,24.70
2018-02-21T05:12:02.058Z,23.83
2018-02-21T05:14:31.873Z,25.33
2018-02-21T05:17:01.963Z,25.37
2018-02-21T05:19:31.791Z,25.45
2018-02-21T05:22:01.597Z,23.95
2018-02-21T05:24:31.427Z,25.30
2018-02-21T05:27:01.301Z,24.15
2018-02-21T05:29:32.381Z,25.05
2018-02-21T05:32:02.249Z,25.27
2018-02-21T05:34:36.533Z,24.35
2018-02-21T05:37:06.335Z,21.23
2018-02-21T05:39:39.997Z,23.35
2018-02-21T05:42:09.798Z,24.00
2018-02-21T05:44:39.607Z,25.12
2018-02-21T05:47:09.450Z,24.77
2018-02-21T05:49:39.282Z,23.80
2018-02-21T05:52:09.134Z,28.38
2018-02-21T05:54:38.913Z,25.75
2018-02-21T05:57:08.728Z,23.55
2018-02-21T05:59:38.537Z,22.67
2018-02-21T06:02:08.418Z,25.05
2018-02-21T06:04:38.412Z,24.10
2018-02-21T06:07:08.308Z,23.62
2018-02-21T06:09:38.211Z,25.37
2018-02-21T06:12:08.049Z,21.73
2018-02-21T06:14:37.961Z,22.02
2018-02-21T06:17:07.928Z,24.60
2018-02-21T06:19:37.897Z,25.15
2018-02-21T06:22:07.845Z,26.05
2018-02-21T06:24:37.897Z,25.30
2018-02-21T06:27:07.920Z,23.83
2018-02-21T06:29:37.755Z,24.75
2018-02-21T06:32:07.775Z,25.88
2018-02-21T06:34:37.799Z,26.48
2018-02-21T06:37:07.686Z,25.73
2018-02-21T06:39:37.647Z,24.27
2018-02-21T06:42:07.578Z,26.98
2018-02-21T06:44:37.723Z,26.27
2018-02-21T06:47:07.878Z,24.20
2018-02-21T06:49:37.860Z,25.27
2018-02-21T06:52:07.872Z,25.17
2018-02-21T06:54:37.874Z,22.67
2018-02-21T06:57:07.921Z,23.60
2018-02-21T06:59:37.827Z,24.10
2018-02-21T07:02:07.153Z,26.37
2018-02-21T07:04:36.841Z,24.40
2018-02-21T07:07:08.108Z,23.85
2018-02-21T07:09:40.318Z,24.20
2018-02-21T07:12:10.179Z,24.08
2018-02-21T07:14:40.198Z,24.67
2018-02-21T07:17:10.222Z,25.60
2018-02-21T07:19:40.566Z,22.55
2018-02-21T07:22:10.767Z,22.83
2018-02-21T07:24:50.417Z,24.02
2018-02-21T07:27:22.353Z,25.17
2018-02-21T07:29:57.775Z,23.20
2018-02-21T07:32:27.978Z,23.15
2018-02-21T07:34:57.873Z,24.60
2018-02-21T07:37:27.987Z,25.20
2018-02-21T07:39:57.841Z,24.12
2018-02-21T07:42:27.792Z,25.12
2018-02-21T07:44:57.670Z,25.40
2018-02-21T07:47:27.591Z,23.73
2018-02-21T07:49:57.549Z,24.75
2018-02-21T07:52:27.725Z,25.58
2018-02-21T07:54:58.721Z,24.77
2018-02-21T07:57:28.725Z,22.55
2018-02-21T07:59:58.913Z,23.45
2018-02-21T08:02:28.757Z,26.15
2018-02-21T08:04:58.922Z,26.00
2018-02-21T08:07:29.064Z,25.17
2018-02-21T08:09:58.801Z,24.83
2018-02-21T08:12:28.991Z,23.83
2018-02-21T08:14:58.829Z,23.35
2018-02-21T08:17:34.379Z,25.00
2018-02-21T08:20:07.500Z,24.67
2018-02-21T08:22:37.404Z,22.42
2018-02-21T08:25:07.317Z,24.35
2018-02-21T08:27:56.120Z,25.67
2018-02-21T08:30:27.857Z,24.35
2018-02-21T08:32:58.030Z,26.00
2018-02-21T08:35:28.979Z,23.42
2018-02-21T08:38:00.789Z,25.55
2018-02-21T08:40:31.853Z,25.50
2018-02-21T08:43:02.556Z,26.15
2018-02-21T08:45:33.170Z,26.17
2018-02-21T08:48:03.232Z,26.73
2018-02-21T08:50:33.085Z,28.33
2018-02-21T08:53:34.741Z,24.75
2018-02-21T08:56:06.283Z,24.45
2018-02-21T08:58:36.301Z,24.60
2018-02-21T09:01:06.438Z,25.05
2018-02-21T09:03:36.426Z,25.35
2018-02-21T09:06:07.344Z,24.98
2018-02-21T09:08:37.235Z,24.65
2018-02-21T09:11:07.383Z,25.12
2018-02-21T09:13:37.306Z,25.20
2018-02-21T09:16:07.262Z,23.83
2018-02-21T09:18:37.157Z,24.05
2018-02-21T09:21:07.139Z,25.42
2018-02-21T09:23:37.040Z,24.40
2018-02-21T09:26:11.136Z,24.15
2018-02-21T09:28:42.190Z,24.92
2018-02-21T09:31:12.637Z,24.37
2018-02-21T09:33:43.000Z,23.23
2018-02-21T09:36:13.357Z,24.35
2018-02-21T09:38:43.206Z,25.42
2018-02-21T09:41:13.134Z,25.42
2018-02-21T09:43:44.548Z,26.23
2018-02-21T09:46:17.939Z,25.50
2018-02-21T09:48:47.901Z,25.58
2018-02-21T09:51:17.799Z,26.08
2018-02-21T09:53:47.777Z,27.58
2018-02-21T09:56:23.543Z,27.92
2018-02-21T09:59:16.073Z,27.80
2018-02-21T10:01:46.004Z,26.70
2018-02-21T10:04:15.509Z,27.08
2018-02-21T10:06:45.470Z,28.62
2018-02-21T10:09:15.120Z,29.00
2018-02-21T10:11:44.940Z,29.60
2018-02-21T10:14:14.802Z,27.98
2018-02-21T10:16:44.649Z,27.85
2018-02-21T10:19:14.375Z,25.37
2018-02-21T10:21:44.161Z,28.58
2018-02-21T10:24:14.370Z,25.45
2018-02-21T10:26:44.198Z,25.45
2018-02-21T10:29:13.992Z,26.00
2018-02-21T10:31:43.821Z,26.10
2018-02-21T10:34:13.634Z,26.23
2018-02-21T10:36:43.485Z,27.98
2018-02-21T10:39:13.350Z,29.52
2018-02-21T10:41:43.185Z,27.40
2018-02-21T10:44:13.309Z,26.67
2018-02-21T10:46:43.438Z,25.90
2018-02-21T10:49:13.419Z,27.13
2018-02-21T10:51:43.361Z,27.17
2018-02-21T10:54:13.166Z,26.10
2018-02-21T10:56:43.010Z,26.45
2018-02-21T10:59:12.822Z,25.00
2018-02-21T11:01:43.074Z,25.02
2018-02-21T11:04:12.885Z,27.37
2018-02-21T11:06:42.696Z,26.25
2018-02-21T11:09:12.728Z,26.35
2018-02-21T11:11:42.588Z,25.40
2018-02-21T11:14:12.411Z,26.42
2018-02-21T11:16:42.801Z,26.42
2018-02-21T11:19:12.931Z,25.52
2018-02-21T11:21:42.885Z,26.30
2018-02-21T11:24:12.705Z,24.63
2018-02-21T11:26:42.533Z,27.40
2018-02-21T11:29:12.403Z,27.65
2018-02-21T11:31:42.224Z,26.37
2018-02-21T11:34:12.168Z,28.70
2018-02-21T11:36:41.845Z,28.23
2018-02-21T11:39:11.690Z,25.98
2018-02-21T11:41:41.498Z,29.20
2018-02-21T11:44:11.343Z,27.15
2018-02-21T11:46:41.167Z,26.45
2018-02-21T11:49:11.072Z,28.33
2018-02-21T11:51:40.892Z,25.40
2018-02-21T11:54:10.792Z,25.95
2018-02-21T11:56:40.614Z,24.65
2018-02-21T11:59:10.401Z,24.35
2018-02-21T12:01:40.213Z,24.30
2018-02-21T12:04:10.045Z,26.75
2018-02-21T12:06:40.400Z,24.73
2018-02-21T12:09:10.217Z,24.35
2018-02-21T12:11:40.136Z,25.95
2018-02-21T12:14:10.072Z,26.65
2018-02-21T12:16:39.888Z,26.30
2018-02-21T12:19:10.038Z,28.80
2018-02-21T12:21:39.621Z,26.80
2018-02-21T12:24:09.220Z,26.80
2018-02-21T12:26:38.793Z,28.17
2018-02-21T12:29:08.412Z,30.10
2018-02-21T12:31:37.840Z,28.57
2018-02-21T12:34:07.408Z,27.47
2018-02-21T12:36:36.968Z,28.27
2018-02-21T12:39:11.641Z,25.93
2018-02-21T12:41:45.111Z,30.80
2018-02-21T12:44:14.849Z,27.90
2018-02-21T12:46:44.364Z,29.10
2018-02-21T12:49:13.950Z,27.20
2018-02-21T12:51:43.790Z,27.13
2018-02-21T12:54:13.634Z,27.15
2018-02-21T12:56:43.541Z,25.65
2018-02-21T12:59:13.374Z,25.17
2018-02-21T13:01:43.190Z,24.33
2018-02-21T13:04:13.038Z,23.67
2018-02-21T13:06:43.124Z,23.90
2018-02-21T13:09:13.011Z,24.48
2018-02-21T13:11:42.817Z,26.10
2018-02-21T13:14:12.743Z,27.45
2018-02-21T13:16:42.721Z,28.12
2018-02-21T13:19:12.588Z,25.92
2018-02-21T13:21:42.426Z,28.05
2018-02-21T13:24:12.286Z,28.08
2018-02-21T13:26:42.181Z,28.87
2018-02-21T13:29:12.124Z,28.20
2018-02-21T13:31:42.158Z,22.52
2018-02-21T13:34:12.148Z,22.33
2018-02-21T13:36:42.013Z,21.70
2018-02-21T13:39:12.154Z,19.92
2018-02-21T13:41:42.026Z,21.55
2018-02-21T13:44:11.963Z,21.58
2018-02-21T13:46:41.795Z,22.60
2018-02-21T13:49:11.680Z,23.08
2018-02-21T13:51:41.519Z,23.62
2018-02-21T13:54:11.440Z,24.27
2018-02-21T13:56:41.812Z,24.85
2018-02-21T13:59:11.747Z,25.95
2018-02-21T14:01:41.586Z,23.90
2018-02-21T14:04:11.942Z,22.90
2018-02-21T14:06:42.023Z,23.30
2018-02-21T14:09:11.958Z,22.02
2018-02-21T14:11:42.114Z,22.80
2018-02-21T14:14:13.049Z,21.23
2018-02-21T14:16:43.884Z,22.25
2018-02-21T14:19:13.784Z,21.60
2018-02-21T14:21:43.890Z,23.00
2018-02-21T14:24:13.750Z,22.35
2018-02-21T14:26:43.679Z,21.62
2018-02-21T14:29:13.606Z,21.40
2018-02-21T14:31:43.518Z,21.00
2018-02-21T14:34:13.442Z,23.87
2018-02-21T14:36:43.967Z,24.42
2018-02-21T14:39:13.925Z,24.23
2018-02-21T14:41:44.258Z,25.05
2018-02-21T14:44:15.948Z,25.27
2018-02-21T14:46:47.059Z,24.67
2018-02-21T14:49:17.833Z,24.12
2018-02-21T14:51:47.918Z,24.10
2018-02-21T14:54:17.923Z,26.48
2018-02-21T14:56:47.856Z,24.37
2018-02-21T14:59:17.917Z,25.05
2018-02-21T15:01:50.489Z,23.70
2018-02-21T15:04:25.353Z,27.08
2018-02-21T15:06:55.263Z,23.90
2018-02-21T15:09:25.214Z,27.08
2018-02-21T15:11:55.428Z,24.95
2018-02-21T15:14:25.503Z,25.60
2018-02-21T15:16:56.909Z,25.42
2018-02-21T15:19:29.979Z,25.23
2018-02-21T15:22:01.320Z,24.25
2018-02-21T15:24:34.583Z,24.58
2018-02-21T15:27:05.099Z,25.00
2018-02-21T15:29:35.092Z,25.90
2018-02-21T15:32:05.283Z,26.33
2018-02-21T15:34:35.141Z,24.60
2018-02-21T15:37:05.197Z,24.12
2018-02-21T15:39:35.154Z,26.02
2018-02-21T15:42:05.710Z,23.62
2018-02-21T15:44:44.272Z,24.30
2018-02-21T15:47:18.223Z,24.92
2018-02-21T15:49:51.209Z,22.45
2018-02-21T15:52:21.719Z,24.30
2018-02-21T15:54:52.274Z,23.83
2018-02-21T15:57:22.792Z,24.27
2018-02-21T15:59:52.762Z,24.33
2018-02-21T16:02:22.922Z,22.35
2018-02-21T16:04:53.296Z,23.45
2018-02-21T16:07:24.131Z,22.08
2018-02-21T16:09:56.363Z,24.10
2018-02-21T16:12:26.327Z,25.62
2018-02-21T16:14:58.149Z,24.75
2018-02-21T16:17:32.322Z,21.70
2018-02-21T16:20:02.516Z,23.80
2018-02-21T16:22:32.954Z,24.27
2018-02-21T16:25:03.836Z,22.27
2018-02-21T16:27:33.763Z,24.52
2018-02-21T16:30:05.717Z,23.48
2018-02-21T16:32:35.688Z,23.30
2018-02-21T16:35:07.671Z,23.67
2018-02-21T16:37:38.921Z,22.70
2018-02-21T16:40:09.013Z,21.40
2018-02-21T16:42:38.840Z,20.60
2018-02-21T16:45:08.629Z,21.10
2018-02-21T16:47:44.261Z,21.05
2018-02-21T16:50:15.950Z,22.15
2018-02-21T16:52:51.374Z,22.67
2018-02-21T16:55:23.117Z,21.87
2018-02-21T16:57:53.030Z,23.00
2018-02-21T17:00:22.994Z,23.05
2018-02-21T17:05:30.897Z,22.13
2018-02-21T17:08:04.958Z,23.02
2018-02-21T17:10:34.578Z,21.45
2018-02-21T17:13:04.626Z,22.40
2018-02-21T17:15:34.673Z,22.20
2018-02-21T17:18:04.545Z,22.48
2018-02-21T17:20:34.435Z,23.17
2018-02-21T17:23:08.826Z,23.62
2018-02-21T17:25:38.712Z,23.30
2018-02-21T17:28:09.273Z,23.00
2018-02-21T17:30:39.219Z,21.52
2018-02-21T17:33:10.433Z,21.95
2018-02-21T17:35:40.300Z,23.08
2018-02-21T17:38:10.132Z,25.12
2018-02-21T17:40:45.451Z,22.40
2018-02-21T17:43:16.544Z,24.63
2018-02-21T17:45:46.550Z,22.80
2018-02-21T17:48:16.830Z,24.90
2018-02-21T17:50:48.158Z,24.87
2018-02-21T17:53:18.224Z,24.52
2018-02-21T17:55:48.089Z,24.37
2018-02-21T18:01:50.526Z,24.15
2018-02-21T18:04:20.404Z,23.67
2018-02-21T18:06:50.292Z,24.10
2018-02-21T18:09:20.153Z,24.70
2018-02-21T18:11:50.300Z,24.73
2018-02-21T18:14:23.081Z,26.20
2018-02-21T18:16:58.859Z,25.67
2018-02-21T18:19:28.737Z,26.58
2018-02-21T18:21:58.677Z,27.02
2018-02-21T18:24:28.738Z,27.90
2018-02-21T18:27:00.189Z,24.98
2018-02-21T18:29:30.266Z,27.45
2018-02-21T18:32:00.293Z,27.20
2018-02-21T18:34:30.227Z,28.20
2018-02-21T18:37:10.054Z,27.73
2018-02-21T18:39:42.163Z,27.13
2018-02-21T18:42:11.991Z,27.80
2018-02-21T18:44:44.368Z,27.73
2018-02-21T18:47:14.780Z,26.75
2018-02-21T18:49:44.924Z,26.95
2018-02-21T18:52:15.172Z,25.00
2018-02-21T18:54:46.082Z,27.45
2018-02-21T18:57:18.450Z,26.90
2018-02-21T18:59:48.435Z,25.60
2018-02-21T19:02:18.475Z,25.70
2018-02-21T19:04:48.444Z,25.42
2018-02-21T19:07:18.304Z,27.05
2018-02-21T19:09:47.926Z,26.33
2018-02-21T19:12:17.863Z,25.55
2018-02-21T19:14:48.766Z,26.80
2018-02-21T19:17:18.774Z,26.58
2018-02-21T19:19:48.798Z,28.70
2018-02-21T19:22:18.660Z,26.42
2018-02-21T19:24:48.640Z,29.33
2018-02-21T19:27:18.476Z,27.10
2018-02-21T19:29:48.377Z,27.87
2018-02-21T19:32:18.845Z,28.70
2018-02-21T19:34:48.869Z,29.67
2018-02-21T19:37:18.827Z,28.40
2018-02-21T19:39:48.845Z,29.48
2018-02-21T19:42:19.178Z,28.85
2018-02-21T19:44:49.787Z,29.15
2018-02-21T19:47:19.739Z,30.60
2018-02-21T19:49:50.006Z,30.58
2018-02-21T19:52:20.022Z,30.50
2018-02-21T19:54:50.015Z,29.63
2018-02-21T19:57:19.827Z,30.35
2018-02-21T19:59:49.687Z,30.65
2018-02-21T20:02:19.958Z,31.55
2018-02-21T20:04:49.786Z,34.08
2018-02-21T20:07:19.760Z,29.87
2018-02-21T20:09:49.840Z,29.33
2018-02-21T20:12:19.724Z,33.05
2018-02-21T20:14:49.594Z,31.00
2018-02-21T20:17:19.528Z,32.75
2018-02-21T20:19:49.554Z,32.22
2018-02-21T20:22:19.643Z,31.50
2018-02-21T20:24:49.660Z,31.15
2018-02-21T20:27:19.972Z,30.65
2018-02-21T20:29:50.178Z,33.85
2018-02-21T20:32:20.273Z,30.95
2018-02-21T20:34:50.444Z,31.10
2018-02-21T20:37:20.778Z,30.42
2018-02-21T20:39:50.999Z,32.35
2018-02-21T20:42:21.110Z,29.10
2018-02-21T20:44:51.344Z,31.37
2018-02-21T20:47:21.456Z,31.65
2018-02-21T20:49:51.387Z,30.45
2018-02-21T20:52:21.296Z,30.75
2018-02-21T20:54:54.196Z,31.00
2018-02-21T20:57:27.662Z,30.10
2018-02-21T20:59:57.503Z,31.08
2018-02-21T21:02:27.337Z,29.37
2018-02-21T21:04:57.183Z,29.42
2018-02-21T21:07:27.006Z,28.27
2018-02-21T21:09:57.496Z,28.02
2018-02-21T21:12:27.957Z,28.62
2018-02-21T21:14:57.851Z,28.80
2018-02-21T21:17:28.638Z,26.95
2018-02-21T21:19:58.520Z,26.25
2018-02-21T21:22:28.471Z,24.63
2018-02-21T21:24:58.276Z,27.98
2018-02-21T21:27:28.066Z,23.35
2018-02-21T21:29:57.892Z,23.85
2018-02-21T21:32:27.723Z,22.70
2018-02-21T21:34:57.553Z,22.70
2018-02-21T21:37:27.423Z,22.50
2018-02-21T21:39:57.687Z,22.75
2018-02-21T21:42:27.840Z,23.38
2018-02-21T21:44:58.032Z,20.75
2018-02-21T21:47:28.134Z,21.12
2018-02-21T21:49:58.111Z,20.48
2018-02-21T21:52:28.520Z,19.92
2018-02-21T21:54:59.176Z,19.17
2018-02-21T21:57:29.210Z,18.60
2018-02-21T21:59:59.148Z,19.20
2018-02-21T22:02:28.955Z,19.55
2018-02-21T22:04:59.043Z,18.65
2018-02-21T22:07:29.192Z,18.65
2018-02-21T22:10:00.768Z,18.40
2018-02-21T22:12:30.616Z,19.45
2018-02-21T22:15:01.797Z,19.37
2018-02-21T22:17:32.453Z,22.35
2018-02-21T22:20:02.680Z,23.87
2018-02-21T22:22:32.241Z,27.42
2018-02-21T22:25:02.293Z,31.10
2018-02-21T22:27:32.216Z,28.58
2018-02-21T22:30:02.026Z,25.42
2018-02-21T22:32:31.821Z,28.70
2018-02-21T22:35:01.918Z,30.92
2018-02-21T22:37:31.709Z,28.10
2018-02-21T22:40:01.542Z,28.08
2018-02-21T22:42:32.279Z,26.73
2018-02-21T22:45:02.372Z,19.25
2018-02-21T22:47:32.170Z,24.52
2018-02-21T22:50:01.996Z,27.48
2018-02-21T22:52:32.526Z,26.73
2018-02-21T22:55:02.326Z,26.87
2018-02-21T22:57:32.144Z,24.75
2018-02-21T23:00:02.002Z,27.25
2018-02-21T23:02:31.557Z,27.58
2018-02-21T23:05:01.373Z,27.67
2018-02-21T23:07:31.225Z,15.63
2018-02-21T23:10:01.086Z,25.75
2018-02-21T23:12:30.941Z,17.77
2018-02-21T23:15:00.844Z,27.10
2018-02-21T23:17:30.724Z,27.92
2018-02-21T23:20:00.288Z,29.08
2018-02-21T23:22:30.123Z,23.67
2018-02-21T23:24:59.946Z,31.20
2018-02-21T23:27:29.758Z,29.73
2018-02-21T23:29:59.573Z,27.67
2018-02-21T23:32:29.417Z,29.20
2018-02-21T23:34:59.286Z,27.35
2018-02-21T23:37:29.139Z,24.58
2018-02-21T23:39:58.981Z,28.05
2018-02-21T23:42:28.784Z,26.30
2018-02-21T23:44:58.617Z,23.30
2018-02-21T23:47:28.421Z,23.02
2018-02-21T23:49:58.250Z,19.05
2018-02-21T23:52:28.143Z,22.90
2018-02-21T23:54:59.415Z,22.35
2018-02-21T23:57:29.238Z,19.23
2018-02-21T23:59:59.095Z,19.52
